createdAt,value
2019-02-14T00:00:51.102Z,99.90
2019-02-14T00:05:36.928Z,99.90
2019-02-14T00:10:22.608Z,99.90
2019-02-14T00:15:09.454Z,99.90
2019-02-14T00:19:55.305Z,99.90
2019-02-14T00:24:41.177Z,99.90
2019-02-14T00:29:27.062Z,99.90
2019-02-14T00:34:12.934Z,99.90
2019-02-14T00:38:59.288Z,99.90
2019-02-14T00:43:45.421Z,99.90
2019-02-14T00:48:31.158Z,99.90
2019-02-14T00:53:17.064Z,99.90
2019-02-14T00:58:02.806Z,99.90
2019-02-14T01:02:48.575Z,99.90
2019-02-14T01:07:34.449Z,99.90
2019-02-14T01:12:20.314Z,99.90
2019-02-14T01:17:06.226Z,99.90
2019-02-14T01:21:51.982Z,99.90
2019-02-14T01:26:37.746Z,99.90
2019-02-14T01:31:23.526Z,99.90
2019-02-14T01:36:09.259Z,99.90
2019-02-14T01:40:55.047Z,99.90
2019-02-14T01:45:40.727Z,99.90
2019-02-14T01:50:26.546Z,99.90
2019-02-14T01:55:12.400Z,99.90
2019-02-14T01:59:58.186Z,99.90
2019-02-14T02:04:43.923Z,99.90
2019-02-14T02:09:29.745Z,99.90
2019-02-14T02:14:15.493Z,99.90
2019-02-14T02:19:01.412Z,99.90
2019-02-14T02:23:47.212Z,99.90
2019-02-14T02:28:33.556Z,99.90
2019-02-14T02:33:19.453Z,99.90
2019-02-14T02:38:05.335Z,99.90
2019-02-14T02:42:51.844Z,99.90
2019-02-14T02:47:37.621Z,99.90
2019-02-14T02:52:23.317Z,99.90
2019-02-14T02:57:09.124Z,99.90
2019-02-14T03:01:54.835Z,99.90
2019-02-14T03:06:40.695Z,99.90
2019-02-14T03:11:26.447Z,99.90
2019-02-14T03:16:12.249Z,99.90
2019-02-14T03:20:58.032Z,99.90
2019-02-14T03:25:43.928Z,99.90
2019-02-14T03:30:29.655Z,99.90
2019-02-14T03:35:15.419Z,99.90
2019-02-14T03:40:01.162Z,99.90
2019-02-14T03:44:46.909Z,99.90
2019-02-14T03:49:32.639Z,99.90
2019-02-14T03:54:18.393Z,99.90
2019-02-14T03:59:04.084Z,99.90
2019-02-14T04:03:49.870Z,99.90
2019-02-14T04:08:35.914Z,99.90
2019-02-14T04:13:21.727Z,99.90
2019-02-14T04:18:07.498Z,99.90
2019-02-14T04:22:53.361Z,99.90
2019-02-14T04:27:40.152Z,99.90
2019-02-14T04:32:25.977Z,99.90
2019-02-14T04:37:11.712Z,99.90
2019-02-14T04:41:57.447Z,99.90
2019-02-14T04:46:45.860Z,99.90
2019-02-14T04:51:31.607Z,99.90
2019-02-14T04:56:17.330Z,99.90
2019-02-14T05:01:03.202Z,99.90
2019-02-14T05:05:48.938Z,99.90
2019-02-14T05:10:34.711Z,99.90
2019-02-14T05:15:20.442Z,99.90
2019-02-14T05:20:07.578Z,99.90
2019-02-14T05:24:53.285Z,99.90
2019-02-14T05:29:39.038Z,99.90
2019-02-14T05:34:24.774Z,99.90
2019-02-14T05:39:10.546Z,99.90
2019-02-14T05:43:56.786Z,99.90
2019-02-14T05:48:42.505Z,99.90
2019-02-14T05:53:28.250Z,99.90
2019-02-14T05:58:14.027Z,99.90
2019-02-14T06:02:59.734Z,99.90
2019-02-14T06:07:45.533Z,99.90
2019-02-14T06:12:31.494Z,99.90
2019-02-14T06:17:17.258Z,99.90
2019-02-14T06:22:03.029Z,99.90
2019-02-14T06:26:48.801Z,99.90
2019-02-14T06:31:34.537Z,99.90
2019-02-14T06:36:20.282Z,99.90
2019-02-14T06:41:06.029Z,99.90
2019-02-14T06:45:51.850Z,99.90
2019-02-14T06:50:37.590Z,99.90
2019-02-14T06:55:23.686Z,99.90
2019-02-14T07:00:11.438Z,99.90
2019-02-14T07:04:57.207Z,99.90
2019-02-14T07:09:42.935Z,99.90
2019-02-14T07:14:28.695Z,99.90
2019-02-14T07:19:14.536Z,99.90
2019-02-14T07:24:00.446Z,99.90
2019-02-14T07:28:46.161Z,99.90
2019-02-14T07:33:31.965Z,99.90
2019-02-14T07:38:17.864Z,99.90
2019-02-14T07:43:06.758Z,99.90
2019-02-14T07:47:52.664Z,99.90
2019-02-14T07:52:38.443Z,99.90
2019-02-14T07:57:24.317Z,99.90
2019-02-14T08:02:10.224Z,99.90
2019-02-14T08:06:55.975Z,99.90
2019-02-14T08:11:41.699Z,99.90
2019-02-14T08:16:27.489Z,99.90
2019-02-14T08:21:13.464Z,99.90
2019-02-14T08:25:59.190Z,99.90
2019-02-14T08:30:44.966Z,99.90
2019-02-14T08:35:30.754Z,99.90
2019-02-14T08:40:19.505Z,99.90
2019-02-14T08:45:06.236Z,99.90
2019-02-14T08:49:52.233Z,99.90
2019-02-14T08:54:38.105Z,99.90
2019-02-14T08:59:23.958Z,99.90
2019-02-14T09:04:09.761Z,99.90
2019-02-14T09:08:55.719Z,99.90
2019-02-14T09:13:41.509Z,99.90
2019-02-14T09:18:28.441Z,98.30
2019-02-14T09:23:14.720Z,92.80
2019-02-14T09:28:00.921Z,91.20
2019-02-14T09:32:47.030Z,83.20
2019-02-14T09:37:32.898Z,81.90
2019-02-14T09:42:18.801Z,76.30
2019-02-14T09:47:04.719Z,72.00
2019-02-14T09:51:50.759Z,72.00
2019-02-14T09:56:36.679Z,67.60
2019-02-14T10:01:22.517Z,66.20
2019-02-14T10:06:08.668Z,60.80
2019-02-14T10:10:54.541Z,60.30
2019-02-14T10:15:40.431Z,60.20
2019-02-14T10:20:26.255Z,59.20
2019-02-14T10:25:12.281Z,59.70
2019-02-14T10:29:58.135Z,61.80
2019-02-14T10:34:43.970Z,58.40
2019-02-14T10:39:29.772Z,55.70
2019-02-14T10:44:15.502Z,56.30
2019-02-14T10:49:01.261Z,54.40
2019-02-14T10:53:47.097Z,52.30
2019-02-14T10:58:32.927Z,49.70
2019-02-14T11:03:18.760Z,48.00
2019-02-14T11:08:04.601Z,47.60
2019-02-14T11:12:50.463Z,44.40
2019-02-14T11:17:36.235Z,50.40
2019-02-14T11:22:22.167Z,52.70
2019-02-14T11:27:08.059Z,51.50
2019-02-14T11:31:53.889Z,46.90
2019-02-14T11:36:39.661Z,45.10
2019-02-14T11:41:25.469Z,45.20
2019-02-14T11:46:11.228Z,41.50
2019-02-14T11:50:57.178Z,40.50
2019-02-14T11:55:43.044Z,40.00
2019-02-14T12:00:29.481Z,40.30
2019-02-14T12:05:15.206Z,39.80
2019-02-14T12:10:00.984Z,39.80
2019-02-14T12:14:46.817Z,40.70
2019-02-14T12:19:32.678Z,39.10
2019-02-14T12:24:18.530Z,38.30
2019-02-14T12:29:04.327Z,38.20
2019-02-14T12:33:50.145Z,37.50
2019-02-14T12:38:35.915Z,37.30
2019-02-14T12:43:21.725Z,36.20
2019-02-14T12:48:07.622Z,33.70
2019-02-14T12:52:53.414Z,32.40
2019-02-14T12:57:39.351Z,30.30
2019-02-14T13:02:25.188Z,33.90
2019-02-14T13:07:11.130Z,34.40
2019-02-14T13:11:57.033Z,32.50
2019-02-14T13:16:42.869Z,31.80
2019-02-14T13:21:28.943Z,32.00
2019-02-14T13:26:14.805Z,32.30
2019-02-14T13:31:01.194Z,32.40
2019-02-14T13:35:47.188Z,32.60
2019-02-14T13:40:33.053Z,30.70
2019-02-14T13:45:21.556Z,30.80
2019-02-14T13:50:08.449Z,29.50
2019-02-14T13:54:54.505Z,29.70
2019-02-14T13:59:40.440Z,29.10
2019-02-14T14:04:26.487Z,31.00
2019-02-14T14:09:12.480Z,30.70
2019-02-14T14:13:58.405Z,31.60
2019-02-14T14:18:44.413Z,32.80
2019-02-14T14:23:30.563Z,34.20
2019-02-14T14:28:16.439Z,36.50
2019-02-14T14:33:02.838Z,34.70
2019-02-14T14:37:48.981Z,34.70
2019-02-14T14:43:06.400Z,36.70
2019-02-14T14:47:52.626Z,34.70
2019-02-14T14:52:38.785Z,34.70
2019-02-14T14:57:24.734Z,34.00
2019-02-14T15:02:10.993Z,33.50
2019-02-14T15:06:57.566Z,32.30
2019-02-14T15:11:43.842Z,31.80
2019-02-14T15:16:30.066Z,32.40
2019-02-14T15:21:16.175Z,34.10
2019-02-14T15:26:02.397Z,36.70
2019-02-14T15:30:48.317Z,40.30
2019-02-14T15:35:34.312Z,41.40
2019-02-14T15:40:20.168Z,40.30
2019-02-14T15:45:06.276Z,40.40
2019-02-14T15:49:52.408Z,41.60
2019-02-14T15:54:38.516Z,43.00
2019-02-14T15:59:24.516Z,42.10
2019-02-14T16:04:10.434Z,40.20
2019-02-14T16:08:56.528Z,40.10
2019-02-14T16:13:42.496Z,44.10
2019-02-14T16:18:28.377Z,51.80
2019-02-14T16:23:14.454Z,58.70
2019-02-14T16:28:00.596Z,64.20
2019-02-14T16:32:46.515Z,69.60
2019-02-14T16:37:33.316Z,73.70
2019-02-14T16:42:19.218Z,85.00
2019-02-14T16:47:05.067Z,92.20
2019-02-14T16:51:50.846Z,99.10
2019-02-14T16:56:36.703Z,99.90
2019-02-14T17:01:22.799Z,99.90
2019-02-14T17:06:08.727Z,99.90
2019-02-14T17:10:54.666Z,99.90
2019-02-14T17:15:40.955Z,99.90
2019-02-14T17:20:27.098Z,99.90
2019-02-14T17:25:13.464Z,99.90
2019-02-14T17:29:59.541Z,99.90
2019-02-14T17:34:45.693Z,99.90
2019-02-14T17:39:31.684Z,99.90
2019-02-14T17:44:18.158Z,99.90
2019-02-14T17:49:04.124Z,99.90
2019-02-14T17:53:49.933Z,99.90
2019-02-14T17:58:36.084Z,99.90
2019-02-14T18:03:22.295Z,99.90
2019-02-14T18:08:08.267Z,99.90
2019-02-14T18:12:54.054Z,99.90
2019-02-14T18:17:40.138Z,99.90
2019-02-14T18:22:26.702Z,99.90
2019-02-14T18:27:12.862Z,99.90
2019-02-14T18:31:58.763Z,99.90
2019-02-14T18:36:45.088Z,99.90
2019-02-14T18:41:31.295Z,99.90
2019-02-14T18:46:17.254Z,99.90
2019-02-14T18:51:03.249Z,99.90
2019-02-14T18:55:49.178Z,99.90
2019-02-14T19:00:35.368Z,99.90
2019-02-14T19:05:21.386Z,99.90
2019-02-14T19:10:08.224Z,99.90
2019-02-14T19:14:54.141Z,99.90
2019-02-14T19:19:40.214Z,99.90
2019-02-14T19:24:26.236Z,99.90
2019-02-14T19:29:12.561Z,99.90
2019-02-14T19:33:58.772Z,99.90
2019-02-14T19:38:44.634Z,99.90
2019-02-14T19:43:30.617Z,99.90
2019-02-14T19:48:16.776Z,99.90
2019-02-14T19:53:03.276Z,99.90
2019-02-14T19:57:49.287Z,99.90
2019-02-14T20:02:35.368Z,99.90
2019-02-14T20:07:21.802Z,99.90
2019-02-14T20:12:07.831Z,99.90
2019-02-14T20:16:53.819Z,99.90
2019-02-14T20:21:39.712Z,99.90
2019-02-14T20:26:25.877Z,99.90
2019-02-14T20:31:12.277Z,99.90
2019-02-14T20:35:58.781Z,99.90
2019-02-14T20:40:45.121Z,99.90
2019-02-14T20:45:31.338Z,99.90
2019-02-14T20:50:17.625Z,99.90
2019-02-14T20:55:03.930Z,99.90
2019-02-14T20:59:49.839Z,99.90
2019-02-14T21:04:35.801Z,99.90
2019-02-14T21:09:21.851Z,99.90
2019-02-14T21:14:10.431Z,99.90
2019-02-14T21:18:56.322Z,99.90
2019-02-14T21:23:42.408Z,99.90
2019-02-14T21:28:28.528Z,99.90
2019-02-14T21:33:14.794Z,99.90
2019-02-14T21:38:00.898Z,99.90
2019-02-14T21:42:47.012Z,99.90
2019-02-14T21:47:33.789Z,99.90
2019-02-14T21:52:20.038Z,99.90
2019-02-14T21:57:06.549Z,99.90
2019-02-14T22:01:52.566Z,99.90
2019-02-14T22:06:38.674Z,99.90
2019-02-14T22:11:24.580Z,99.90
2019-02-14T22:16:10.564Z,99.90
2019-02-14T22:20:56.625Z,99.90
2019-02-14T22:25:42.880Z,99.90
2019-02-14T22:30:28.821Z,99.90
2019-02-14T22:35:15.863Z,99.90
2019-02-14T22:40:01.676Z,99.90
2019-02-14T22:44:47.644Z,99.90
2019-02-14T22:49:34.542Z,99.90
2019-02-14T22:54:20.506Z,99.90
2019-02-14T22:59:06.349Z,99.90
2019-02-14T23:03:52.254Z,99.90
2019-02-14T23:08:38.284Z,99.90
2019-02-14T23:13:24.465Z,99.90
2019-02-14T23:18:16.638Z,99.90
2019-02-14T23:23:02.509Z,99.90
2019-02-14T23:27:48.405Z,99.90
2019-02-14T23:32:34.224Z,99.90
2019-02-14T23:37:20.091Z,99.90
2019-02-14T23:42:06.063Z,99.90
2019-02-14T23:46:51.861Z,99.90
2019-02-14T23:51:37.779Z,99.90
2019-02-14T23:56:23.580Z,99.90
